createdAt,value
2019-01-31T00:00:51.125Z,2.35
2019-01-31T00:02:21.822Z,3.75
2019-01-31T00:03:30.723Z,12.18
2019-01-31T00:04:37.194Z,2.45
2019-01-31T00:05:49.598Z,3.58
2019-01-31T00:06:56.162Z,2.98
2019-01-31T00:08:14.379Z,4.67
2019-01-31T00:09:26.590Z,2.58
2019-01-31T00:10:47.880Z,6.42
2019-01-31T00:11:54.361Z,5.12
2019-01-31T00:13:12.501Z,1.87
2019-01-31T00:14:21.644Z,2.05
2019-01-31T00:15:30.670Z,5.85
2019-01-31T00:16:45.775Z,2.55
2019-01-31T00:17:58.171Z,11.30
2019-01-31T00:19:04.645Z,2.33
2019-01-31T00:20:28.703Z,12.37
2019-01-31T00:21:35.187Z,3.40
2019-01-31T00:22:47.199Z,5.40
2019-01-31T00:24:02.317Z,4.62
2019-01-31T00:25:38.918Z,3.30
2019-01-31T00:26:59.955Z,1.77
2019-01-31T00:28:24.308Z,4.85
2019-01-31T00:29:30.872Z,6.25
2019-01-31T00:30:42.520Z,4.33
2019-01-31T00:32:03.817Z,5.62
2019-01-31T00:33:12.980Z,4.78
2019-01-31T00:34:25.113Z,2.33
2019-01-31T00:35:37.258Z,4.83
2019-01-31T00:36:58.592Z,3.58
2019-01-31T00:38:22.417Z,5.05
2019-01-31T00:39:47.697Z,3.83
2019-01-31T00:41:14.663Z,9.58
2019-01-31T00:42:29.984Z,3.10
2019-01-31T00:43:54.056Z,2.85
2019-01-31T00:45:03.540Z,6.17
2019-01-31T00:46:24.632Z,3.72
2019-01-31T00:47:55.061Z,6.95
2019-01-31T00:49:01.536Z,5.45
2019-01-31T00:50:34.922Z,6.53
2019-01-31T00:51:44.365Z,3.40
2019-01-31T00:52:59.534Z,4.25
2019-01-31T00:54:14.795Z,4.22
2019-01-31T00:55:24.120Z,6.03
2019-01-31T00:56:35.849Z,3.50
2019-01-31T00:57:45.310Z,2.15
2019-01-31T00:58:54.366Z,2.45
2019-01-31T01:00:03.280Z,3.55
2019-01-31T01:01:15.631Z,4.22
2019-01-31T01:02:36.893Z,3.15
2019-01-31T01:04:05.381Z,5.70
2019-01-31T01:05:23.738Z,6.67
2019-01-31T01:06:49.399Z,3.15
2019-01-31T01:08:01.626Z,3.72
2019-01-31T01:09:27.175Z,5.80
2019-01-31T01:10:42.138Z,3.42
2019-01-31T01:11:57.278Z,5.47
2019-01-31T01:13:14.628Z,1.42
2019-01-31T01:14:24.019Z,4.45
2019-01-31T01:15:52.688Z,2.22
2019-01-31T01:16:59.168Z,6.05
2019-01-31T01:18:14.405Z,2.12
2019-01-31T01:19:20.880Z,5.75
2019-01-31T01:20:39.237Z,2.35
2019-01-31T01:21:51.485Z,3.70
2019-01-31T01:23:00.836Z,3.20
2019-01-31T01:24:07.334Z,3.70
2019-01-31T01:25:29.837Z,3.92
2019-01-31T01:26:48.121Z,2.30
2019-01-31T01:28:06.546Z,1.85
2019-01-31T01:29:28.139Z,2.37
2019-01-31T01:31:00.090Z,2.87
2019-01-31T01:32:21.558Z,2.67
2019-01-31T01:33:39.756Z,3.25
2019-01-31T01:35:03.739Z,6.03
2019-01-31T01:36:21.984Z,2.37
2019-01-31T01:37:53.756Z,4.85
2019-01-31T01:39:18.886Z,3.10
2019-01-31T01:40:35.476Z,2.00
2019-01-31T01:41:44.844Z,3.55
2019-01-31T01:43:07.823Z,1.87
2019-01-31T01:44:29.210Z,8.00
2019-01-31T01:45:50.504Z,3.08
2019-01-31T01:47:14.680Z,2.20
2019-01-31T01:48:27.216Z,10.18
2019-01-31T01:49:36.221Z,3.22
2019-01-31T01:50:45.543Z,3.27
2019-01-31T01:52:18.748Z,2.17
2019-01-31T01:53:27.762Z,17.12
2019-01-31T01:54:53.122Z,1.22
2019-01-31T01:56:18.580Z,9.95
2019-01-31T01:57:33.626Z,5.58
2019-01-31T01:58:45.650Z,3.42
2019-01-31T02:00:18.959Z,11.50
2019-01-31T02:01:46.118Z,7.40
2019-01-31T02:03:07.359Z,7.15
2019-01-31T02:04:22.464Z,10.40
2019-01-31T02:05:40.419Z,4.53
2019-01-31T02:06:49.665Z,4.58
2019-01-31T02:08:04.859Z,6.05
2019-01-31T02:09:11.403Z,5.30
2019-01-31T02:10:32.442Z,6.33
2019-01-31T02:11:47.568Z,5.45
2019-01-31T02:13:11.347Z,4.35
2019-01-31T02:14:38.639Z,3.75
2019-01-31T02:15:45.138Z,3.33
2019-01-31T02:17:10.593Z,1.87
2019-01-31T02:18:19.619Z,3.67
2019-01-31T02:19:54.718Z,4.20
2019-01-31T02:21:22.043Z,6.72
2019-01-31T02:22:52.552Z,4.05
2019-01-31T02:24:04.826Z,2.75
2019-01-31T02:25:14.241Z,4.92
2019-01-31T02:26:20.698Z,6.47
2019-01-31T02:27:44.831Z,3.37
2019-01-31T02:28:57.459Z,10.50
2019-01-31T02:30:20.182Z,4.35
2019-01-31T02:31:38.328Z,7.50
2019-01-31T02:32:47.760Z,2.00
2019-01-31T02:33:57.219Z,6.47
2019-01-31T02:35:15.324Z,3.95
2019-01-31T02:36:36.589Z,4.97
2019-01-31T02:38:10.072Z,2.65
2019-01-31T02:39:47.801Z,3.30
2019-01-31T02:41:02.811Z,2.35
2019-01-31T02:42:24.832Z,5.30
2019-01-31T02:43:48.736Z,3.52
2019-01-31T02:44:57.981Z,3.12
2019-01-31T02:46:04.468Z,5.92
2019-01-31T02:47:13.525Z,5.90
2019-01-31T02:48:20.028Z,3.67
2019-01-31T02:49:32.347Z,3.52
2019-01-31T02:50:44.433Z,2.85
2019-01-31T02:51:56.676Z,3.92
2019-01-31T02:53:06.052Z,2.87
2019-01-31T02:54:28.800Z,2.85
2019-01-31T02:55:46.964Z,3.98
2019-01-31T02:56:59.014Z,3.60
2019-01-31T02:58:14.213Z,1.62
2019-01-31T02:59:29.397Z,3.83
2019-01-31T03:00:56.419Z,1.50
2019-01-31T03:02:11.676Z,3.33
2019-01-31T03:03:23.580Z,3.83
2019-01-31T03:04:30.073Z,5.87
2019-01-31T03:05:36.559Z,1.40
2019-01-31T03:06:57.534Z,2.55
2019-01-31T03:08:15.727Z,4.67
2019-01-31T03:09:25.077Z,3.98
2019-01-31T03:10:31.685Z,3.87
2019-01-31T03:11:40.818Z,4.53
2019-01-31T03:12:59.052Z,4.53
2019-01-31T03:14:10.155Z,2.83
2019-01-31T03:15:22.734Z,2.47
2019-01-31T03:16:38.066Z,3.77
2019-01-31T03:17:59.398Z,4.00
2019-01-31T03:19:23.647Z,1.20
2019-01-31T03:20:38.703Z,7.87
2019-01-31T03:21:56.897Z,2.40
2019-01-31T03:23:12.159Z,2.70
2019-01-31T03:24:33.347Z,1.72
2019-01-31T03:25:42.737Z,5.10
2019-01-31T03:27:11.326Z,4.90
2019-01-31T03:28:35.606Z,6.83
2019-01-31T03:29:58.073Z,5.90
2019-01-31T03:31:32.941Z,4.80
2019-01-31T03:32:45.072Z,2.33
2019-01-31T03:33:57.214Z,5.03
2019-01-31T03:35:14.978Z,1.77
2019-01-31T03:36:30.166Z,1.72
2019-01-31T03:37:42.222Z,2.42
2019-01-31T03:38:54.205Z,4.50
2019-01-31T03:40:12.215Z,5.33
2019-01-31T03:41:26.980Z,4.50
2019-01-31T03:42:49.810Z,2.55
2019-01-31T03:43:56.287Z,2.33
2019-01-31T03:45:02.762Z,3.77
2019-01-31T03:46:09.254Z,7.10
2019-01-31T03:47:21.590Z,7.05
2019-01-31T03:48:30.934Z,3.42
2019-01-31T03:49:40.489Z,3.35
2019-01-31T03:50:47.042Z,2.72
2019-01-31T03:52:08.268Z,9.10
2019-01-31T03:53:23.533Z,2.55
2019-01-31T03:54:44.715Z,1.72
2019-01-31T03:56:15.643Z,5.35
2019-01-31T03:57:27.310Z,2.17
2019-01-31T03:58:36.348Z,5.40
2019-01-31T03:59:39.845Z,1.37
2019-01-31T04:00:58.271Z,5.70
2019-01-31T04:02:28.893Z,4.00
2019-01-31T04:03:35.369Z,6.87
2019-01-31T04:04:41.857Z,2.72
2019-01-31T04:05:48.332Z,1.67
2019-01-31T04:06:51.817Z,2.92
2019-01-31T04:07:55.212Z,4.72
2019-01-31T04:08:58.631Z,4.30
2019-01-31T04:10:02.219Z,3.22
2019-01-31T04:11:05.800Z,2.70
2019-01-31T04:12:09.359Z,5.33
2019-01-31T04:13:12.787Z,5.45
2019-01-31T04:14:16.216Z,14.78
2019-01-31T04:15:19.705Z,1.67
2019-01-31T04:16:23.224Z,4.22
2019-01-31T04:17:26.666Z,9.80
2019-01-31T04:18:30.090Z,4.35
2019-01-31T04:19:33.513Z,1.12
2019-01-31T04:20:36.973Z,1.27
2019-01-31T04:21:40.490Z,14.68
2019-01-31T04:22:43.934Z,6.17
2019-01-31T04:23:47.368Z,9.25
2019-01-31T04:24:50.796Z,2.35
2019-01-31T04:25:54.232Z,2.80
2019-01-31T04:26:57.661Z,8.53
2019-01-31T04:28:01.081Z,5.35
2019-01-31T04:29:04.662Z,1.30
2019-01-31T04:30:11.134Z,7.55
2019-01-31T04:31:14.694Z,2.75
2019-01-31T04:32:18.145Z,2.50
2019-01-31T04:33:21.576Z,1.80
2019-01-31T04:34:25.005Z,1.95
2019-01-31T04:35:28.510Z,2.20
2019-01-31T04:36:32.045Z,7.50
2019-01-31T04:37:35.541Z,3.60
2019-01-31T04:38:39.054Z,1.90
2019-01-31T04:39:42.549Z,5.40
2019-01-31T04:40:46.047Z,1.40
2019-01-31T04:41:49.476Z,1.62
2019-01-31T04:42:52.917Z,5.37
2019-01-31T04:43:56.347Z,9.50
2019-01-31T04:44:59.774Z,3.60
2019-01-31T04:46:03.275Z,5.00
2019-01-31T04:47:06.765Z,3.20
2019-01-31T04:48:10.207Z,1.32
2019-01-31T04:49:13.647Z,7.20
2019-01-31T04:50:17.237Z,6.83
2019-01-31T04:51:20.653Z,4.75
2019-01-31T04:52:24.148Z,6.47
2019-01-31T04:53:27.598Z,10.03
2019-01-31T04:54:31.121Z,6.50
2019-01-31T04:55:34.613Z,8.90
2019-01-31T04:56:38.043Z,4.15
2019-01-31T04:57:41.532Z,1.57
2019-01-31T04:58:44.981Z,4.83
2019-01-31T04:59:48.427Z,6.00
2019-01-31T05:00:51.916Z,5.47
2019-01-31T05:01:55.358Z,10.53
2019-01-31T05:02:58.798Z,3.50
2019-01-31T05:04:02.295Z,7.60
2019-01-31T05:05:07.201Z,1.85
2019-01-31T05:06:10.664Z,3.87
2019-01-31T05:07:14.219Z,5.03
2019-01-31T05:08:17.654Z,4.60
2019-01-31T05:09:21.115Z,5.47
2019-01-31T05:10:24.570Z,3.67
2019-01-31T05:11:28.106Z,6.87
2019-01-31T05:12:31.520Z,5.60
2019-01-31T05:13:34.962Z,6.72
2019-01-31T05:14:38.409Z,8.23
2019-01-31T05:15:42.008Z,5.90
2019-01-31T05:16:45.595Z,5.50
2019-01-31T05:17:49.084Z,4.30
2019-01-31T05:18:52.516Z,12.90
2019-01-31T05:19:55.962Z,8.08
2019-01-31T05:20:59.506Z,6.00
2019-01-31T05:22:03.023Z,9.73
2019-01-31T05:23:06.452Z,9.23
2019-01-31T05:24:09.898Z,3.20
2019-01-31T05:25:14.677Z,5.67
2019-01-31T05:26:18.176Z,9.15
2019-01-31T05:27:21.618Z,8.05
2019-01-31T05:28:25.182Z,23.22
2019-01-31T05:29:28.847Z,7.95
2019-01-31T05:30:32.295Z,11.12
2019-01-31T05:31:35.876Z,22.87
2019-01-31T05:32:39.366Z,9.65
2019-01-31T05:33:42.800Z,12.10
2019-01-31T05:34:46.297Z,11.55
2019-01-31T05:35:49.824Z,6.08
2019-01-31T05:36:53.338Z,3.12
2019-01-31T05:37:56.770Z,6.12
2019-01-31T05:39:00.192Z,7.40
2019-01-31T05:40:04.875Z,13.43
2019-01-31T05:41:08.306Z,3.77
2019-01-31T05:42:11.761Z,8.65
2019-01-31T05:43:15.187Z,9.93
2019-01-31T05:44:18.690Z,9.38
2019-01-31T05:45:22.123Z,11.60
2019-01-31T05:46:25.631Z,5.78
2019-01-31T05:47:29.097Z,7.53
2019-01-31T05:48:32.686Z,13.15
2019-01-31T05:49:36.033Z,6.87
2019-01-31T05:50:39.459Z,5.75
2019-01-31T05:51:42.978Z,9.15
2019-01-31T05:52:46.491Z,12.50
2019-01-31T05:53:49.916Z,6.12
2019-01-31T05:54:53.340Z,6.30
2019-01-31T05:55:56.781Z,13.65
2019-01-31T05:57:00.372Z,17.60
2019-01-31T05:58:03.963Z,13.43
2019-01-31T05:59:07.458Z,9.53
2019-01-31T06:00:16.888Z,7.37
2019-01-31T06:01:20.321Z,8.08
2019-01-31T06:02:23.859Z,8.00
2019-01-31T06:03:27.257Z,11.22
2019-01-31T06:04:30.755Z,12.05
2019-01-31T06:05:34.322Z,8.63
2019-01-31T06:06:37.772Z,4.60
2019-01-31T06:07:41.268Z,7.40
2019-01-31T06:08:44.827Z,4.78
2019-01-31T06:09:48.348Z,11.10
2019-01-31T06:10:51.801Z,10.68
2019-01-31T06:11:55.246Z,11.20
2019-01-31T06:12:58.756Z,5.92
2019-01-31T06:14:02.302Z,8.43
2019-01-31T06:15:08.746Z,9.70
2019-01-31T06:16:12.264Z,12.07
2019-01-31T06:17:15.752Z,15.43
2019-01-31T06:18:19.226Z,14.53
2019-01-31T06:19:22.655Z,26.33
2019-01-31T06:20:26.420Z,12.13
2019-01-31T06:21:29.849Z,10.32
2019-01-31T06:22:33.289Z,3.75
2019-01-31T06:23:36.727Z,3.00
2019-01-31T06:24:40.164Z,12.47
2019-01-31T06:25:43.614Z,8.90
2019-01-31T06:26:47.117Z,7.37
2019-01-31T06:27:50.697Z,9.08
2019-01-31T06:28:54.273Z,7.92
2019-01-31T06:29:57.694Z,9.35
2019-01-31T06:31:01.115Z,7.97
2019-01-31T06:32:04.681Z,6.05
2019-01-31T06:33:08.172Z,6.33
2019-01-31T06:34:11.783Z,7.55
2019-01-31T06:35:15.450Z,8.95
2019-01-31T06:36:18.873Z,3.58
2019-01-31T06:37:22.321Z,14.45
2019-01-31T06:38:25.878Z,6.55
2019-01-31T06:39:29.335Z,17.35
2019-01-31T06:40:32.787Z,7.65
2019-01-31T06:41:36.224Z,16.52
2019-01-31T06:42:39.750Z,15.10
2019-01-31T06:43:43.191Z,11.75
2019-01-31T06:44:46.723Z,18.40
2019-01-31T06:45:50.179Z,6.22
2019-01-31T06:46:53.608Z,6.03
2019-01-31T06:47:57.035Z,9.75
2019-01-31T06:49:00.550Z,4.22
2019-01-31T06:50:05.049Z,8.13
2019-01-31T06:51:08.563Z,16.93
2019-01-31T06:52:11.998Z,15.88
2019-01-31T06:53:15.437Z,13.00
2019-01-31T06:54:18.868Z,15.38
2019-01-31T06:55:22.466Z,13.83
2019-01-31T06:56:25.900Z,16.07
2019-01-31T06:57:29.338Z,17.85
2019-01-31T06:58:32.773Z,8.28
2019-01-31T06:59:36.273Z,11.15
2019-01-31T07:00:39.766Z,15.85
2019-01-31T07:01:43.282Z,20.37
2019-01-31T07:02:46.788Z,27.75
2019-01-31T07:03:50.321Z,22.22
2019-01-31T07:04:53.811Z,15.98
2019-01-31T07:05:57.270Z,15.40
2019-01-31T07:07:00.802Z,28.55
2019-01-31T07:08:04.795Z,13.40
2019-01-31T07:09:09.981Z,26.52
2019-01-31T07:10:24.735Z,15.38
2019-01-31T07:11:30.055Z,24.00
2019-01-31T07:12:33.441Z,15.43
2019-01-31T07:13:36.887Z,8.68
2019-01-31T07:14:40.329Z,8.55
2019-01-31T07:15:43.787Z,9.90
2019-01-31T07:16:47.376Z,7.65
2019-01-31T07:17:50.888Z,4.10
2019-01-31T07:18:54.316Z,16.20
2019-01-31T07:19:57.754Z,10.35
2019-01-31T07:21:01.276Z,9.58
2019-01-31T07:22:05.178Z,9.00
2019-01-31T07:23:08.699Z,12.53
2019-01-31T07:24:12.201Z,19.32
2019-01-31T07:25:18.458Z,7.03
2019-01-31T07:26:21.977Z,12.28
2019-01-31T07:27:25.410Z,23.12
2019-01-31T07:28:28.921Z,10.40
2019-01-31T07:29:32.481Z,7.10
2019-01-31T07:30:36.017Z,13.98
2019-01-31T07:31:39.520Z,17.35
2019-01-31T07:32:42.961Z,12.95
2019-01-31T07:33:46.462Z,20.05
2019-01-31T07:34:49.889Z,8.23
2019-01-31T07:35:53.481Z,9.78
2019-01-31T07:36:57.020Z,21.40
2019-01-31T07:38:00.484Z,14.45
2019-01-31T07:39:05.786Z,10.72
2019-01-31T07:40:11.965Z,5.40
2019-01-31T07:41:15.549Z,9.00
2019-01-31T07:42:19.069Z,12.88
2019-01-31T07:43:22.605Z,13.40
2019-01-31T07:44:26.043Z,12.82
2019-01-31T07:45:31.425Z,21.77
2019-01-31T07:46:34.857Z,21.57
2019-01-31T07:47:38.997Z,20.80
2019-01-31T07:48:42.425Z,9.95
2019-01-31T07:49:45.941Z,28.55
2019-01-31T07:50:49.355Z,20.62
2019-01-31T07:51:52.935Z,12.40
2019-01-31T07:52:56.543Z,8.98
2019-01-31T07:54:00.022Z,13.78
2019-01-31T07:55:03.539Z,11.78
2019-01-31T07:56:07.123Z,16.90
2019-01-31T07:57:10.618Z,14.63
2019-01-31T07:58:14.077Z,9.45
2019-01-31T07:59:17.501Z,19.23
2019-01-31T08:00:27.250Z,21.50
2019-01-31T08:01:30.688Z,13.60
2019-01-31T08:02:34.182Z,16.70
2019-01-31T08:03:40.634Z,11.48
2019-01-31T08:04:42.889Z,16.62
2019-01-31T08:05:46.537Z,18.87
2019-01-31T08:06:50.009Z,16.75
2019-01-31T08:07:58.066Z,26.95
2019-01-31T08:09:01.593Z,13.13
2019-01-31T08:10:08.076Z,17.45
2019-01-31T08:11:11.641Z,26.45
2019-01-31T08:12:15.146Z,28.70
2019-01-31T08:13:18.713Z,11.22
2019-01-31T08:14:22.180Z,9.28
2019-01-31T08:15:25.757Z,17.23
2019-01-31T08:16:29.323Z,7.47
2019-01-31T08:17:32.782Z,13.15
2019-01-31T08:18:36.362Z,18.87
2019-01-31T08:19:39.810Z,16.80
2019-01-31T08:20:43.321Z,14.23
2019-01-31T08:21:46.827Z,18.50
2019-01-31T08:22:50.395Z,18.25
2019-01-31T08:23:53.988Z,18.75
2019-01-31T08:24:57.396Z,21.07
2019-01-31T08:26:00.854Z,41.28
2019-01-31T08:27:04.447Z,24.20
2019-01-31T08:28:08.016Z,16.02
2019-01-31T08:29:11.509Z,22.15
2019-01-31T08:30:23.980Z,16.80
2019-01-31T08:31:27.475Z,11.33
2019-01-31T08:32:30.979Z,9.83
2019-01-31T08:33:34.546Z,16.27
2019-01-31T08:34:37.977Z,15.45
2019-01-31T08:35:41.565Z,12.95
2019-01-31T08:36:45.062Z,19.30
2019-01-31T08:37:48.622Z,13.32
2019-01-31T08:38:52.119Z,13.18
2019-01-31T08:39:55.542Z,22.95
2019-01-31T08:40:59.068Z,17.37
2019-01-31T08:42:03.744Z,22.90
2019-01-31T08:43:07.436Z,33.63
2019-01-31T08:44:10.929Z,12.43
2019-01-31T08:45:15.268Z,13.98
2019-01-31T08:46:18.789Z,17.85
2019-01-31T08:47:22.267Z,18.17
2019-01-31T08:48:25.884Z,5.15
2019-01-31T08:49:29.362Z,13.22
2019-01-31T08:50:33.133Z,24.37
2019-01-31T08:51:36.651Z,21.95
2019-01-31T08:52:41.757Z,15.30
2019-01-31T08:53:45.175Z,30.85
2019-01-31T08:54:48.604Z,25.35
2019-01-31T08:55:52.108Z,18.30
2019-01-31T08:56:55.622Z,13.15
2019-01-31T08:57:59.216Z,16.87
2019-01-31T08:59:02.636Z,16.30
2019-01-31T09:00:12.011Z,18.25
2019-01-31T09:01:15.688Z,23.70
2019-01-31T09:02:19.166Z,26.40
2019-01-31T09:03:22.661Z,17.55
2019-01-31T09:04:26.086Z,10.63
2019-01-31T09:05:29.852Z,15.03
2019-01-31T09:06:33.426Z,10.08
2019-01-31T09:07:36.953Z,14.05
2019-01-31T09:08:40.508Z,16.30
2019-01-31T09:09:43.894Z,12.47
2019-01-31T09:10:47.396Z,11.08
2019-01-31T09:11:50.888Z,16.17
2019-01-31T09:12:54.397Z,16.02
2019-01-31T09:13:57.853Z,10.63
2019-01-31T09:15:01.291Z,9.23
2019-01-31T09:16:04.793Z,13.80
2019-01-31T09:17:08.285Z,9.78
2019-01-31T09:18:11.892Z,8.28
2019-01-31T09:19:15.383Z,8.93
2019-01-31T09:20:42.545Z,12.07
2019-01-31T09:21:47.113Z,16.05
2019-01-31T09:22:54.068Z,30.27
2019-01-31T09:24:18.161Z,21.27
2019-01-31T09:25:42.273Z,21.00
2019-01-31T09:27:05.315Z,16.23
2019-01-31T09:28:26.532Z,11.28
2019-01-31T09:29:32.975Z,5.37
2019-01-31T09:30:57.283Z,10.23
2019-01-31T09:32:06.593Z,7.85
2019-01-31T09:33:24.758Z,19.07
2019-01-31T09:34:53.529Z,23.65
2019-01-31T09:36:28.538Z,13.65
2019-01-31T09:37:51.363Z,9.30
2019-01-31T09:39:18.682Z,26.35
2019-01-31T09:40:40.153Z,11.40
2019-01-31T09:41:58.430Z,13.00
2019-01-31T09:43:07.832Z,18.12
2019-01-31T09:44:23.343Z,19.15
2019-01-31T09:45:32.418Z,20.62
2019-01-31T09:46:45.002Z,18.65
2019-01-31T09:48:00.194Z,14.40
2019-01-31T09:49:09.473Z,6.80
2019-01-31T09:50:22.077Z,21.00
2019-01-31T09:51:44.999Z,24.32
2019-01-31T09:53:07.824Z,13.03
2019-01-31T09:54:14.328Z,46.30
2019-01-31T09:55:38.571Z,23.65
2019-01-31T09:57:16.317Z,29.98
2019-01-31T09:58:47.965Z,13.98
2019-01-31T10:00:13.602Z,7.45
2019-01-31T10:01:25.965Z,7.80
2019-01-31T10:02:57.885Z,5.50
2019-01-31T10:04:30.582Z,8.60
2019-01-31T10:05:56.631Z,11.22
2019-01-31T10:07:08.654Z,6.47
2019-01-31T10:08:23.693Z,9.28
2019-01-31T10:09:30.174Z,20.20
2019-01-31T10:10:42.273Z,7.25
2019-01-31T10:12:15.626Z,8.25
2019-01-31T10:13:56.599Z,4.37
2019-01-31T10:15:12.059Z,6.12
2019-01-31T10:16:27.235Z,7.47
2019-01-31T10:17:42.609Z,6.87
2019-01-31T10:18:54.647Z,13.32
2019-01-31T10:20:26.329Z,12.10
2019-01-31T10:21:35.608Z,10.63
2019-01-31T10:23:00.411Z,12.07
2019-01-31T10:24:23.212Z,24.92
2019-01-31T10:25:44.254Z,17.73
2019-01-31T10:26:56.331Z,19.35
2019-01-31T10:28:08.657Z,15.25
2019-01-31T10:29:15.135Z,8.98
2019-01-31T10:30:52.633Z,6.37
2019-01-31T10:32:01.704Z,12.55
2019-01-31T10:33:11.008Z,13.78
2019-01-31T10:34:39.386Z,7.05
2019-01-31T10:35:51.774Z,4.80
2019-01-31T10:37:10.259Z,12.35
2019-01-31T10:38:19.170Z,10.13
2019-01-31T10:39:31.337Z,2.52
2019-01-31T10:41:01.348Z,11.12
2019-01-31T10:42:30.123Z,6.37
2019-01-31T10:43:53.304Z,12.40
2019-01-31T10:45:05.576Z,13.50
2019-01-31T10:46:41.313Z,12.55
2019-01-31T10:48:08.620Z,5.67
2019-01-31T10:49:23.771Z,5.65
2019-01-31T10:50:45.106Z,15.70
2019-01-31T10:51:51.592Z,8.55
2019-01-31T10:52:58.085Z,8.85
2019-01-31T10:54:19.276Z,19.32
2019-01-31T10:55:37.525Z,13.10
2019-01-31T10:57:06.234Z,15.80
2019-01-31T10:58:29.264Z,3.62
2019-01-31T10:59:53.570Z,9.60
2019-01-31T11:01:00.067Z,6.67
2019-01-31T11:02:21.357Z,6.65
2019-01-31T11:03:47.224Z,6.80
2019-01-31T11:05:15.732Z,7.92
2019-01-31T11:06:24.918Z,15.88
2019-01-31T11:07:40.370Z,5.47
2019-01-31T11:08:52.113Z,5.50
2019-01-31T11:10:01.452Z,6.33
2019-01-31T11:11:13.146Z,5.62
2019-01-31T11:12:40.517Z,1.72
2019-01-31T11:13:49.436Z,14.98
2019-01-31T11:15:01.419Z,11.20
2019-01-31T11:16:19.107Z,11.28
2019-01-31T11:17:37.313Z,8.70
2019-01-31T11:18:46.359Z,5.60
2019-01-31T11:19:58.647Z,12.78
2019-01-31T11:21:21.483Z,15.03
2019-01-31T11:22:51.734Z,5.83
2019-01-31T11:24:12.161Z,9.05
2019-01-31T11:25:37.743Z,7.40
2019-01-31T11:27:01.811Z,6.65
2019-01-31T11:28:24.780Z,7.28
2019-01-31T11:29:40.018Z,1.67
2019-01-31T11:30:49.245Z,11.53
2019-01-31T11:32:19.659Z,1.50
2019-01-31T11:33:40.834Z,7.40
2019-01-31T11:35:02.101Z,5.58
2019-01-31T11:36:27.773Z,4.60
2019-01-31T11:37:45.701Z,1.00
2019-01-31T11:39:00.736Z,1.25
2019-01-31T11:40:07.295Z,1.82
2019-01-31T11:41:13.772Z,4.85
2019-01-31T11:42:22.699Z,1.20
2019-01-31T11:43:37.984Z,1.85
2019-01-31T11:44:47.033Z,6.40
2019-01-31T11:46:02.111Z,6.90
2019-01-31T11:47:20.332Z,5.97
2019-01-31T11:48:35.545Z,3.83
2019-01-31T11:49:42.060Z,2.67
2019-01-31T11:51:09.519Z,8.68
2019-01-31T11:52:16.018Z,2.37
2019-01-31T11:53:34.405Z,4.80
2019-01-31T11:54:46.214Z,8.10
2019-01-31T11:55:58.244Z,3.50
2019-01-31T11:57:05.778Z,4.10
2019-01-31T11:58:15.074Z,4.55
2019-01-31T11:59:18.540Z,7.53
2019-01-31T12:00:23.624Z,3.35
2019-01-31T12:01:27.562Z,4.95
2019-01-31T12:02:31.001Z,5.50
2019-01-31T12:03:34.423Z,2.27
2019-01-31T12:04:38.003Z,3.02
2019-01-31T12:05:41.529Z,4.33
2019-01-31T12:06:45.092Z,10.10
2019-01-31T12:07:48.728Z,6.05
2019-01-31T12:08:52.227Z,1.70
2019-01-31T12:09:55.743Z,9.80
2019-01-31T12:10:59.270Z,5.47
2019-01-31T12:12:02.817Z,5.65
2019-01-31T12:13:06.456Z,9.85
2019-01-31T12:14:10.012Z,2.50
2019-01-31T12:15:13.691Z,5.17
2019-01-31T12:16:17.203Z,7.70
2019-01-31T12:17:20.631Z,9.13
2019-01-31T12:18:24.204Z,12.55
2019-01-31T12:19:27.708Z,6.00
2019-01-31T12:20:31.239Z,11.93
2019-01-31T12:21:34.724Z,12.20
2019-01-31T12:22:38.222Z,3.27
2019-01-31T12:23:42.195Z,4.25
2019-01-31T12:24:45.626Z,7.15
2019-01-31T12:25:49.205Z,9.43
2019-01-31T12:26:52.807Z,7.35
2019-01-31T12:27:56.398Z,1.80
2019-01-31T12:28:59.904Z,2.42
2019-01-31T12:30:05.143Z,1.77
2019-01-31T12:31:08.655Z,6.10
2019-01-31T12:32:12.148Z,6.75
2019-01-31T12:33:15.642Z,2.67
2019-01-31T12:34:19.073Z,3.95
2019-01-31T12:35:22.597Z,7.83
2019-01-31T12:36:26.211Z,3.00
2019-01-31T12:37:29.585Z,3.62
2019-01-31T12:38:36.867Z,4.72
2019-01-31T12:39:38.246Z,4.00
2019-01-31T12:40:41.715Z,7.47
2019-01-31T12:41:45.358Z,4.00
2019-01-31T12:42:48.819Z,4.62
2019-01-31T12:43:52.381Z,3.87
2019-01-31T12:44:55.809Z,3.42
2019-01-31T12:45:59.265Z,4.28
2019-01-31T12:47:02.725Z,5.22
2019-01-31T12:48:06.291Z,2.08
2019-01-31T12:49:09.717Z,2.90
2019-01-31T12:50:21.925Z,1.90
2019-01-31T12:51:25.528Z,1.42
2019-01-31T12:52:28.972Z,7.55
2019-01-31T12:53:32.481Z,4.83
2019-01-31T12:54:35.992Z,5.53
2019-01-31T12:55:39.575Z,1.10
2019-01-31T12:56:43.402Z,2.72
2019-01-31T12:57:46.981Z,5.30
2019-01-31T12:58:50.672Z,6.00
2019-01-31T12:59:54.160Z,1.10
2019-01-31T13:00:57.684Z,8.65
2019-01-31T13:02:01.189Z,3.27
2019-01-31T13:03:04.867Z,4.00
2019-01-31T13:04:08.370Z,7.08
2019-01-31T13:05:12.545Z,1.22
2019-01-31T13:06:16.111Z,2.72
2019-01-31T13:07:19.563Z,2.45
2019-01-31T13:08:22.979Z,2.15
2019-01-31T13:09:28.359Z,5.80
2019-01-31T13:10:31.643Z,6.55
2019-01-31T13:11:35.236Z,3.58
2019-01-31T13:12:48.373Z,4.53
2019-01-31T13:13:46.030Z,3.22
2019-01-31T13:14:49.396Z,1.17
2019-01-31T13:15:52.962Z,4.25
2019-01-31T13:16:56.441Z,10.68
2019-01-31T13:17:59.972Z,2.00
2019-01-31T13:19:03.468Z,13.05
2019-01-31T13:20:10.425Z,6.87
2019-01-31T13:21:14.024Z,18.82
2019-01-31T13:22:17.750Z,2.05
2019-01-31T13:23:21.340Z,2.60
2019-01-31T13:24:24.760Z,4.83
2019-01-31T13:25:28.731Z,8.90
2019-01-31T13:26:32.394Z,1.67
2019-01-31T13:27:35.862Z,2.87
2019-01-31T13:28:39.361Z,5.10
2019-01-31T13:29:42.927Z,4.50
2019-01-31T13:30:46.457Z,3.72
2019-01-31T13:31:50.156Z,16.00
2019-01-31T13:32:55.499Z,12.37
2019-01-31T13:33:59.043Z,4.33
2019-01-31T13:35:02.591Z,6.45
2019-01-31T13:36:09.033Z,2.27
2019-01-31T13:37:12.709Z,1.62
2019-01-31T13:38:16.287Z,8.53
2019-01-31T13:39:20.287Z,12.20
2019-01-31T13:40:26.001Z,5.47
2019-01-31T13:41:29.582Z,4.35
2019-01-31T13:42:33.070Z,8.18
2019-01-31T13:43:36.589Z,2.20
2019-01-31T13:44:40.118Z,2.80
2019-01-31T13:45:43.683Z,3.95
2019-01-31T13:46:47.274Z,5.28
2019-01-31T13:47:50.715Z,4.62
2019-01-31T13:48:54.227Z,3.33
2019-01-31T13:49:57.844Z,5.08
2019-01-31T13:51:01.287Z,4.72
2019-01-31T13:52:04.865Z,25.62
2019-01-31T13:53:08.870Z,7.65
2019-01-31T13:54:12.456Z,5.10
2019-01-31T13:55:21.698Z,13.38
2019-01-31T13:56:25.288Z,3.75
2019-01-31T13:57:28.781Z,5.40
2019-01-31T13:58:32.345Z,5.83
2019-01-31T13:59:35.861Z,5.22
2019-01-31T14:00:39.639Z,8.03
2019-01-31T14:01:43.147Z,9.03
2019-01-31T14:02:46.744Z,8.93
2019-01-31T14:03:50.382Z,12.45
2019-01-31T14:04:53.876Z,4.42
2019-01-31T14:05:57.406Z,11.63
2019-01-31T14:07:01.055Z,4.72
2019-01-31T14:08:05.269Z,2.15
2019-01-31T14:09:09.643Z,6.05
2019-01-31T14:10:16.486Z,12.70
2019-01-31T14:11:19.931Z,12.35
2019-01-31T14:12:23.360Z,3.17
2019-01-31T14:13:26.792Z,4.78
2019-01-31T14:14:30.272Z,6.00
2019-01-31T14:15:35.060Z,13.45
2019-01-31T14:16:47.320Z,5.25
2019-01-31T14:17:43.769Z,2.87
2019-01-31T14:18:47.486Z,2.87
2019-01-31T14:19:50.911Z,4.12
2019-01-31T14:20:54.357Z,7.28
2019-01-31T14:21:57.779Z,6.42
2019-01-31T14:23:01.315Z,3.83
2019-01-31T14:24:05.181Z,8.53
2019-01-31T14:25:08.991Z,5.25
2019-01-31T14:26:12.504Z,3.60
2019-01-31T14:27:15.961Z,3.08
2019-01-31T14:28:19.454Z,4.08
2019-01-31T14:29:22.885Z,12.47
2019-01-31T14:30:28.992Z,11.28
2019-01-31T14:31:32.448Z,12.13
2019-01-31T14:32:36.091Z,7.87
2019-01-31T14:33:39.518Z,4.55
2019-01-31T14:34:42.933Z,2.98
2019-01-31T14:35:46.625Z,4.75
2019-01-31T14:36:50.888Z,4.87
2019-01-31T14:37:54.447Z,3.87
2019-01-31T14:38:57.949Z,15.65
2019-01-31T14:40:01.375Z,10.13
2019-01-31T14:41:05.227Z,11.97
2019-01-31T14:42:08.793Z,11.43
2019-01-31T14:43:12.288Z,11.45
2019-01-31T14:44:20.662Z,6.20
2019-01-31T14:45:21.093Z,5.15
2019-01-31T14:46:24.594Z,5.30
2019-01-31T14:47:28.174Z,12.05
2019-01-31T14:48:32.031Z,9.60
2019-01-31T14:49:35.449Z,11.48
2019-01-31T14:50:39.054Z,8.53
2019-01-31T14:51:42.567Z,16.73
2019-01-31T14:52:46.765Z,14.75
2019-01-31T14:53:50.214Z,12.53
2019-01-31T14:54:53.633Z,7.62
2019-01-31T14:55:57.127Z,11.75
2019-01-31T14:57:00.657Z,8.25
2019-01-31T14:58:05.337Z,9.35
2019-01-31T14:59:08.769Z,16.32
2019-01-31T15:00:15.481Z,11.25
2019-01-31T15:01:19.046Z,11.33
2019-01-31T15:02:22.502Z,6.67
2019-01-31T15:03:25.925Z,13.18
2019-01-31T15:04:29.338Z,8.83
2019-01-31T15:05:32.825Z,6.70
2019-01-31T15:06:36.332Z,2.52
2019-01-31T15:07:39.915Z,8.45
2019-01-31T15:08:43.369Z,15.20
2019-01-31T15:09:46.846Z,8.40
2019-01-31T15:10:50.226Z,25.45